createdAt,value
2023-06-19T00:00:16.770Z,16.85
2023-06-19T00:02:46.721Z,15.25
2023-06-19T00:05:15.142Z,15.75
2023-06-19T00:07:43.048Z,16.55
2023-06-19T00:10:10.979Z,17.27
2023-06-19T00:12:38.920Z,14.73
2023-06-19T00:15:08.677Z,13.48
2023-06-19T00:17:38.726Z,13.90
2023-06-19T00:20:07.077Z,15.30
2023-06-19T00:22:35.185Z,16.23
2023-06-19T00:25:03.061Z,14.65
2023-06-19T00:27:31.018Z,15.90
2023-06-19T00:30:03.622Z,16.13
2023-06-19T00:32:31.599Z,15.88
2023-06-19T00:35:02.160Z,18.30
2023-06-19T00:37:33.495Z,16.27
2023-06-19T00:40:01.464Z,14.65
2023-06-19T00:42:29.322Z,14.38
2023-06-19T00:44:57.525Z,15.68
2023-06-19T00:47:26.876Z,16.17
2023-06-19T00:49:54.973Z,14.88
2023-06-19T00:52:22.919Z,17.17
2023-06-19T00:54:50.870Z,18.00
2023-06-19T00:57:18.782Z,16.15
2023-06-19T00:59:48.591Z,17.88
2023-06-19T01:02:16.929Z,20.50
2023-06-19T01:04:44.935Z,15.95
2023-06-19T01:07:14.698Z,17.85
2023-06-19T01:09:47.421Z,15.32
2023-06-19T01:12:18.422Z,16.88
2023-06-19T01:14:56.325Z,16.88
2023-06-19T01:17:24.721Z,15.50
2023-06-19T01:19:52.812Z,22.65
2023-06-19T01:22:27.834Z,16.05
2023-06-19T01:24:55.762Z,16.95
2023-06-19T01:27:24.780Z,14.18
2023-06-19T01:29:54.889Z,15.80
2023-06-19T01:32:26.439Z,16.30
2023-06-19T01:34:56.450Z,15.15
2023-06-19T01:37:28.530Z,17.17
2023-06-19T01:39:58.525Z,17.67
2023-06-19T01:42:27.508Z,17.65
2023-06-19T01:44:55.616Z,14.98
2023-06-19T01:47:24.007Z,13.45
2023-06-19T01:49:51.941Z,17.98
2023-06-19T01:52:19.913Z,16.52
2023-06-19T01:54:47.816Z,16.13
2023-06-19T01:57:16.270Z,15.57
2023-06-19T01:59:44.281Z,15.98
2023-06-19T02:02:12.915Z,18.13
2023-06-19T02:04:40.925Z,15.60
2023-06-19T02:07:08.777Z,16.35
2023-06-19T02:09:38.096Z,14.15
2023-06-19T02:12:06.043Z,19.60
2023-06-19T02:14:33.964Z,17.55
2023-06-19T02:17:02.480Z,21.27
2023-06-19T02:19:30.477Z,19.98
2023-06-19T02:21:58.376Z,19.55
2023-06-19T02:24:27.799Z,16.58
2023-06-19T02:26:55.770Z,17.30
2023-06-19T02:29:25.859Z,16.15
2023-06-19T02:31:53.684Z,19.33
2023-06-19T02:34:21.556Z,21.58
2023-06-19T02:36:49.451Z,19.58
2023-06-19T02:39:17.372Z,19.95
2023-06-19T02:41:47.128Z,21.50
2023-06-19T02:44:15.190Z,18.33
2023-06-19T02:46:45.308Z,20.55
2023-06-19T02:49:13.240Z,21.35
2023-06-19T02:51:42.470Z,18.70
2023-06-19T02:54:10.592Z,19.40
2023-06-19T02:56:40.055Z,18.80
2023-06-19T02:59:08.115Z,20.00
2023-06-19T03:01:36.246Z,20.55
2023-06-19T03:04:04.142Z,18.90
2023-06-19T03:06:32.338Z,23.45
2023-06-19T03:09:00.671Z,20.08
2023-06-19T03:11:28.539Z,20.23
2023-06-19T03:13:58.065Z,21.90
2023-06-19T03:16:26.951Z,22.63
2023-06-19T03:18:54.853Z,18.75
2023-06-19T03:21:25.242Z,19.83
2023-06-19T03:23:53.775Z,24.55
2023-06-19T03:26:25.963Z,23.27
2023-06-19T03:28:54.408Z,22.95
2023-06-19T03:31:23.253Z,19.17
2023-06-19T03:33:51.558Z,19.98
2023-06-19T03:36:20.661Z,24.38
2023-06-19T03:38:50.824Z,20.88
2023-06-19T03:41:22.173Z,22.80
2023-06-19T03:43:50.109Z,25.58
2023-06-19T03:46:18.980Z,25.30
2023-06-19T03:48:48.004Z,25.98
2023-06-19T03:51:16.340Z,22.80
2023-06-19T03:53:44.323Z,21.15
2023-06-19T03:56:12.240Z,23.67
2023-06-19T03:58:40.182Z,26.17
2023-06-19T04:01:08.604Z,21.83
2023-06-19T04:03:36.555Z,23.27
2023-06-19T04:06:04.465Z,22.42
2023-06-19T04:08:32.473Z,25.17
2023-06-19T04:11:00.399Z,29.55
2023-06-19T04:13:30.119Z,28.23
2023-06-19T04:15:58.057Z,40.60
2023-06-19T04:18:29.425Z,22.10
2023-06-19T04:20:58.336Z,25.45
2023-06-19T04:23:26.254Z,24.70
2023-06-19T04:25:54.261Z,23.17
2023-06-19T04:28:22.233Z,25.90
2023-06-19T04:30:50.184Z,24.80
2023-06-19T04:33:22.417Z,21.50
2023-06-19T04:35:50.468Z,23.00
2023-06-19T04:38:18.368Z,30.77
2023-06-19T04:40:46.296Z,26.95
2023-06-19T04:43:14.226Z,25.30
2023-06-19T04:45:42.102Z,26.90
2023-06-19T04:48:10.120Z,26.52
2023-06-19T04:50:38.043Z,27.15
2023-06-19T04:53:07.072Z,22.77
2023-06-19T04:55:35.169Z,28.38
2023-06-19T04:58:03.060Z,26.50
2023-06-19T05:00:30.983Z,25.55
2023-06-19T05:03:00.914Z,28.85
2023-06-19T05:05:29.765Z,28.70
2023-06-19T05:07:57.671Z,26.98
2023-06-19T05:10:25.845Z,29.73
2023-06-19T05:12:53.863Z,28.42
2023-06-19T05:15:21.933Z,28.17
2023-06-19T05:17:50.067Z,29.77
2023-06-19T05:20:18.086Z,30.00
2023-06-19T05:22:46.307Z,28.13
2023-06-19T05:25:14.232Z,31.90
2023-06-19T05:27:42.168Z,32.75
2023-06-19T05:30:10.283Z,32.25
2023-06-19T05:32:38.297Z,29.73
2023-06-19T05:35:06.799Z,34.20
2023-06-19T05:37:35.242Z,29.90
2023-06-19T05:40:03.371Z,33.00
2023-06-19T05:42:31.123Z,45.70
2023-06-19T05:44:58.999Z,34.67
2023-06-19T05:47:27.133Z,30.20
2023-06-19T05:49:55.195Z,35.50
2023-06-19T05:52:23.070Z,33.42
2023-06-19T05:54:51.066Z,30.25
2023-06-19T05:57:22.095Z,27.40
2023-06-19T05:59:50.324Z,28.77
2023-06-19T06:02:22.282Z,35.28
2023-06-19T06:04:50.478Z,34.03
2023-06-19T06:07:18.551Z,29.55
2023-06-19T06:09:46.601Z,31.77
2023-06-19T06:12:14.551Z,27.83
2023-06-19T06:14:43.002Z,36.25
2023-06-19T06:17:11.278Z,27.42
2023-06-19T06:19:40.073Z,31.65
2023-06-19T06:22:08.377Z,30.05
2023-06-19T06:24:36.550Z,27.73
2023-06-19T06:27:04.664Z,38.28
2023-06-19T06:29:32.522Z,40.28
2023-06-19T06:32:07.373Z,28.73
2023-06-19T06:34:35.743Z,29.15
2023-06-19T06:37:06.439Z,32.28
2023-06-19T06:39:35.108Z,27.60
2023-06-19T06:42:03.345Z,26.95
2023-06-19T06:44:31.497Z,32.22
2023-06-19T06:46:59.542Z,60.60
2023-06-19T06:49:27.676Z,38.85
2023-06-19T06:51:57.995Z,30.58
2023-06-19T06:54:26.670Z,28.40
2023-06-19T06:56:59.345Z,28.67
2023-06-19T06:59:28.324Z,27.70
2023-06-19T07:01:57.679Z,26.90
2023-06-19T07:04:25.836Z,31.10
2023-06-19T07:19:15.286Z,34.47
2023-06-19T07:21:43.724Z,31.77
2023-06-19T07:24:12.059Z,29.90
2023-06-19T07:26:41.389Z,32.42
2023-06-19T07:29:09.321Z,24.13
2023-06-19T07:31:37.284Z,27.15
2023-06-19T07:34:05.195Z,28.00
2023-06-19T07:36:33.346Z,33.00
2023-06-19T07:39:01.312Z,28.00
2023-06-19T07:41:29.432Z,25.55
2023-06-19T07:43:57.816Z,28.42
2023-06-19T07:46:25.755Z,25.20
2023-06-19T07:48:53.696Z,33.03
2023-06-19T07:51:22.705Z,28.83
2023-06-19T07:53:50.606Z,30.00
2023-06-19T07:56:18.433Z,27.50
2023-06-19T07:59:25.096Z,29.60
2023-06-19T08:01:52.946Z,23.25
2023-06-19T08:04:20.845Z,24.52
2023-06-19T08:06:48.714Z,25.13
2023-06-19T08:09:16.769Z,28.77
2023-06-19T08:11:44.605Z,28.20
2023-06-19T08:14:12.706Z,24.42
2023-06-19T08:16:41.714Z,28.55
2023-06-19T08:19:09.773Z,29.17
2023-06-19T08:21:37.748Z,26.75
2023-06-19T08:24:05.640Z,33.70
2023-06-19T08:26:33.936Z,27.40
2023-06-19T08:29:01.926Z,27.13
2023-06-19T08:31:29.990Z,24.23
2023-06-19T08:33:58.107Z,23.15
2023-06-19T08:36:26.115Z,20.13
2023-06-19T08:38:54.240Z,25.42
2023-06-19T08:41:22.352Z,25.27
2023-06-19T08:43:50.295Z,20.08
2023-06-19T08:46:19.110Z,31.98
2023-06-19T08:48:58.611Z,19.83
2023-06-19T08:51:28.079Z,27.02
2023-06-19T08:53:57.484Z,25.67
2023-06-19T08:56:25.625Z,24.67
2023-06-19T08:58:53.894Z,26.73
2023-06-19T09:01:21.817Z,27.27
2023-06-19T09:03:53.733Z,21.70
2023-06-19T09:06:22.106Z,28.05
2023-06-19T09:08:59.661Z,25.98
2023-06-19T09:11:28.470Z,23.75
2023-06-19T09:14:02.252Z,26.00
2023-06-19T09:16:40.304Z,26.80
2023-06-19T09:19:08.456Z,27.10
2023-06-19T09:21:39.657Z,26.33
2023-06-19T09:24:09.165Z,29.67
2023-06-19T09:26:37.842Z,29.33
2023-06-19T09:29:21.334Z,25.67
2023-06-19T09:31:49.739Z,28.30
2023-06-19T09:34:17.895Z,36.28
2023-06-19T09:36:46.686Z,45.70
2023-06-19T09:39:15.364Z,39.35
2023-06-19T09:41:43.728Z,26.40
2023-06-19T09:44:14.388Z,24.88
2023-06-19T09:46:43.585Z,24.73
2023-06-19T09:49:12.008Z,20.98
2023-06-19T09:51:43.528Z,26.15
2023-06-19T09:54:12.774Z,27.77
2023-06-19T09:56:41.219Z,20.25
2023-06-19T09:59:10.762Z,22.73
2023-06-19T10:01:39.033Z,20.17
2023-06-19T10:04:08.296Z,22.10
2023-06-19T10:06:46.571Z,27.23
2023-06-19T10:09:19.087Z,20.35
2023-06-19T10:11:52.581Z,16.92
2023-06-19T10:14:25.966Z,24.25
2023-06-19T10:16:54.086Z,26.00
2023-06-19T10:19:23.693Z,24.23
2023-06-19T10:21:56.300Z,22.98
2023-06-19T10:24:25.716Z,20.42
2023-06-19T10:27:04.016Z,20.20
2023-06-19T10:29:42.603Z,15.40
2023-06-19T10:32:12.850Z,21.67
2023-06-19T10:34:40.945Z,18.75
2023-06-19T10:37:08.842Z,23.98
2023-06-19T10:39:36.922Z,19.20
2023-06-19T10:42:08.334Z,15.75
2023-06-19T10:44:38.142Z,14.90
2023-06-19T10:47:08.585Z,12.73
2023-06-19T10:49:37.096Z,14.85
2023-06-19T10:52:05.208Z,14.90
2023-06-19T10:54:34.179Z,11.85
2023-06-19T10:57:05.732Z,12.45
2023-06-19T10:59:35.811Z,10.27
2023-06-19T11:02:03.938Z,13.32
2023-06-19T11:04:32.040Z,11.68
2023-06-19T11:07:06.712Z,11.88
2023-06-19T11:09:34.578Z,12.82
2023-06-19T11:12:02.540Z,9.73
2023-06-19T11:14:33.441Z,18.02
2023-06-19T11:17:01.637Z,15.50
2023-06-19T11:19:32.578Z,11.70
2023-06-19T11:22:02.142Z,11.05
2023-06-19T11:24:30.384Z,10.63
2023-06-19T11:27:00.437Z,11.55
2023-06-19T11:29:29.330Z,15.38
2023-06-19T11:32:15.437Z,13.95
2023-06-19T11:34:44.602Z,9.52
2023-06-19T11:37:17.050Z,9.57
2023-06-19T11:39:46.143Z,12.63
2023-06-19T11:42:15.506Z,9.18
2023-06-19T11:45:03.778Z,12.38
2023-06-19T11:47:35.179Z,16.50
2023-06-19T11:50:07.360Z,10.93
2023-06-19T11:52:35.274Z,9.87
2023-06-19T11:55:03.459Z,7.93
2023-06-19T11:57:31.612Z,10.55
2023-06-19T11:59:59.564Z,11.45
2023-06-19T12:02:35.213Z,9.93
2023-06-19T12:05:26.681Z,13.75
2023-06-19T12:07:54.857Z,15.02
2023-06-19T12:10:23.393Z,15.55
2023-06-19T12:12:51.605Z,11.40
2023-06-19T12:15:19.619Z,12.32
2023-06-19T12:17:48.004Z,14.75
2023-06-19T12:20:16.157Z,18.42
2023-06-19T12:22:44.176Z,9.32
2023-06-19T12:25:12.375Z,13.43
2023-06-19T12:27:40.735Z,12.50
2023-06-19T12:30:09.091Z,13.70
2023-06-19T12:32:37.186Z,15.40
2023-06-19T12:35:05.361Z,10.02
2023-06-19T12:37:33.459Z,15.60
2023-06-19T12:40:01.372Z,9.70
2023-06-19T12:42:29.317Z,12.60
2023-06-19T12:44:57.280Z,9.40
2023-06-19T12:47:25.527Z,14.70
2023-06-19T12:49:53.418Z,12.50
2023-06-19T12:52:21.281Z,11.82
2023-06-19T12:54:49.229Z,9.90
2023-06-19T12:57:17.154Z,10.07
2023-06-19T12:59:45.238Z,11.93
2023-06-19T13:02:15.466Z,10.77
2023-06-19T13:04:43.693Z,24.35
2023-06-19T13:07:11.727Z,13.77
2023-06-19T13:09:39.632Z,8.32
2023-06-19T13:12:07.880Z,11.38
2023-06-19T13:14:35.776Z,14.13
2023-06-19T13:17:03.685Z,9.73
2023-06-19T13:19:31.722Z,9.07
2023-06-19T13:21:59.797Z,10.07
2023-06-19T13:24:28.801Z,9.70
2023-06-19T13:26:56.776Z,14.82
2023-06-19T13:29:24.932Z,12.15
2023-06-19T13:31:53.058Z,6.97
2023-06-19T13:34:22.958Z,18.25
2023-06-19T13:36:50.847Z,11.80
2023-06-19T13:39:21.599Z,12.93
2023-06-19T13:41:49.720Z,6.93
2023-06-19T13:44:17.670Z,9.05
2023-06-19T13:46:45.548Z,6.30
2023-06-19T13:49:14.867Z,9.88
2023-06-19T13:51:45.475Z,9.25
2023-06-19T13:54:14.350Z,16.83
2023-06-19T13:56:43.575Z,9.98
2023-06-19T13:59:11.489Z,7.55
2023-06-19T14:01:39.561Z,6.28
2023-06-19T14:04:07.463Z,7.65
2023-06-19T14:06:35.509Z,7.68
2023-06-19T14:09:03.511Z,7.20
2023-06-19T14:11:33.838Z,9.68
2023-06-19T14:14:01.767Z,9.25
2023-06-19T14:16:29.741Z,9.10
2023-06-19T14:18:57.726Z,7.05
2023-06-19T14:21:25.917Z,8.10
2023-06-19T14:23:53.870Z,6.80
2023-06-19T14:26:22.360Z,6.35
2023-06-19T14:28:50.441Z,7.57
2023-06-19T14:31:18.327Z,5.80
2023-06-19T14:33:46.153Z,9.43
2023-06-19T14:36:14.004Z,10.50
2023-06-19T14:38:41.866Z,9.32
2023-06-19T14:41:09.967Z,10.60
2023-06-19T14:43:37.817Z,16.15
2023-06-19T14:46:06.312Z,6.70
2023-06-19T14:48:34.434Z,7.10
2023-06-19T14:51:03.151Z,7.68
2023-06-19T14:53:31.185Z,19.30
2023-06-19T14:55:59.013Z,9.27
2023-06-19T14:58:29.812Z,8.20
2023-06-19T15:00:59.333Z,6.07
2023-06-19T15:03:27.468Z,9.40
2023-06-19T15:05:55.751Z,6.68
2023-06-19T15:08:25.128Z,7.03
2023-06-19T15:10:53.400Z,5.93
2023-06-19T15:13:21.241Z,6.57
2023-06-19T15:15:49.361Z,11.10
2023-06-19T15:18:17.353Z,12.38
2023-06-19T15:20:45.261Z,7.45
2023-06-19T15:23:13.177Z,7.43
2023-06-19T15:25:41.044Z,5.13
2023-06-19T15:28:08.908Z,7.57
2023-06-19T15:30:36.821Z,7.93
2023-06-19T15:33:04.843Z,6.72
2023-06-19T15:35:32.786Z,6.88
2023-06-19T15:38:02.086Z,9.65
2023-06-19T15:40:30.992Z,6.53
2023-06-19T15:42:58.813Z,7.63
2023-06-19T15:45:26.795Z,5.63
2023-06-19T15:47:54.769Z,8.43
2023-06-19T15:50:23.070Z,10.23
2023-06-19T15:52:51.180Z,10.68
2023-06-19T15:55:19.159Z,6.07
2023-06-19T15:57:47.060Z,9.02
2023-06-19T16:00:15.315Z,8.93
2023-06-19T16:02:48.989Z,6.88
2023-06-19T16:05:18.873Z,8.10
2023-06-19T16:07:46.966Z,9.27
2023-06-19T16:10:17.060Z,8.57
2023-06-19T16:12:45.393Z,6.78
2023-06-19T16:15:18.657Z,8.70
2023-06-19T16:17:48.001Z,5.28
2023-06-19T16:20:15.945Z,6.38
2023-06-19T16:22:44.007Z,8.60
2023-06-19T16:25:12.089Z,10.30
2023-06-19T16:27:40.317Z,7.00
2023-06-19T16:30:08.644Z,6.32
2023-06-19T16:32:36.527Z,7.38
2023-06-19T16:35:04.758Z,6.65
2023-06-19T16:37:32.744Z,6.55
2023-06-19T16:40:01.043Z,7.28
2023-06-19T16:42:28.959Z,6.30
2023-06-19T16:44:57.012Z,9.80
2023-06-19T16:47:24.928Z,6.80
2023-06-19T16:49:53.095Z,5.80
2023-06-19T16:55:23.581Z,6.50
2023-06-19T16:57:51.925Z,6.18
2023-06-19T17:00:20.211Z,8.25
2023-06-19T17:02:49.735Z,6.22
2023-06-19T17:05:17.749Z,9.55
2023-06-19T17:07:46.616Z,7.63
2023-06-19T17:10:17.958Z,8.30
2023-06-19T17:12:46.213Z,15.32
2023-06-19T17:15:14.373Z,12.27
2023-06-19T17:17:42.355Z,6.68
2023-06-19T17:20:10.491Z,15.75
2023-06-19T17:22:38.389Z,13.02
2023-06-19T17:25:06.817Z,8.52
2023-06-19T17:27:34.738Z,7.32
2023-06-19T17:30:02.737Z,8.00
2023-06-19T17:32:32.245Z,21.52
2023-06-19T17:35:03.365Z,13.15
2023-06-19T17:37:34.463Z,9.73
2023-06-19T17:40:02.415Z,7.97
2023-06-19T17:42:30.336Z,8.65
2023-06-19T17:44:58.205Z,8.90
2023-06-19T17:47:26.806Z,7.63
2023-06-19T17:49:54.757Z,10.25
2023-06-19T17:52:22.777Z,13.55
2023-06-19T17:54:51.782Z,8.27
2023-06-19T17:57:19.886Z,11.20
2023-06-19T17:59:48.170Z,7.75
2023-06-19T18:02:16.340Z,8.57
2023-06-19T18:04:44.154Z,9.90
2023-06-19T18:07:22.500Z,10.95
2023-06-19T18:09:54.497Z,7.18
2023-06-19T18:12:22.409Z,7.57
2023-06-19T18:14:50.611Z,10.93
2023-06-19T18:17:18.720Z,12.25
2023-06-19T18:19:47.145Z,10.07
2023-06-19T18:22:25.230Z,10.02
2023-06-19T18:24:53.373Z,11.73
2023-06-19T18:27:21.481Z,11.23
2023-06-19T18:29:49.406Z,18.02
2023-06-19T18:32:23.315Z,17.80
2023-06-19T18:34:51.506Z,13.43
2023-06-19T18:37:19.642Z,10.63
2023-06-19T18:39:49.764Z,8.27
2023-06-19T18:42:18.840Z,11.95
2023-06-19T18:44:46.864Z,11.45
2023-06-19T18:47:14.810Z,8.45
2023-06-19T18:49:42.750Z,16.95
2023-06-19T18:52:10.640Z,36.80
2023-06-19T18:54:40.879Z,30.08
2023-06-19T18:57:08.960Z,22.27
2023-06-19T18:59:37.519Z,13.77
2023-06-19T19:02:08.370Z,17.60
2023-06-19T19:04:38.588Z,25.80
2023-06-19T19:07:06.873Z,52.60
2023-06-19T19:09:34.734Z,24.25
2023-06-19T19:12:02.795Z,21.45
2023-06-19T19:14:30.884Z,19.45
2023-06-19T19:16:59.060Z,45.10
2023-06-19T19:19:28.429Z,16.15
2023-06-19T19:21:56.376Z,18.88
2023-06-19T19:24:24.504Z,14.70
2023-06-19T19:26:52.600Z,51.92
2023-06-19T19:29:20.527Z,93.07
2023-06-19T19:31:48.447Z,41.33
2023-06-19T19:34:20.774Z,23.35
2023-06-19T19:36:50.378Z,20.42
2023-06-19T19:39:18.462Z,34.22
2023-06-19T19:41:47.004Z,33.63
2023-06-19T19:44:15.008Z,13.43
2023-06-19T19:46:42.951Z,16.38
2023-06-19T19:49:11.018Z,10.02
2023-06-19T19:51:38.942Z,10.80
2023-06-19T19:54:07.220Z,9.68
2023-06-19T19:56:35.136Z,9.73
2023-06-19T19:59:03.266Z,12.23
2023-06-19T20:01:31.209Z,14.35
2023-06-19T20:03:59.454Z,10.27
2023-06-19T20:06:27.893Z,13.63
2023-06-19T20:08:56.100Z,9.45
2023-06-19T20:11:24.458Z,8.80
2023-06-19T20:13:52.483Z,12.35
2023-06-19T20:16:20.359Z,11.52
2023-06-19T20:18:48.295Z,9.68
2023-06-19T20:21:16.363Z,8.18
2023-06-19T20:23:44.257Z,12.50
2023-06-19T20:26:12.295Z,12.30
2023-06-19T20:28:40.281Z,8.85
2023-06-19T20:31:08.680Z,9.43
2023-06-19T20:33:36.527Z,8.02
2023-06-19T20:36:04.535Z,10.82
2023-06-19T20:38:32.522Z,11.55
2023-06-19T20:41:02.058Z,9.77
2023-06-19T20:43:30.009Z,11.07
2023-06-19T20:46:01.778Z,10.38
2023-06-19T20:48:30.382Z,10.98
2023-06-19T20:50:58.566Z,8.07
2023-06-19T20:53:27.338Z,9.77
2023-06-19T20:55:55.387Z,10.80
2023-06-19T20:58:27.766Z,10.88
2023-06-19T21:00:59.004Z,9.55
2023-06-19T21:03:29.599Z,9.02
2023-06-19T21:05:57.903Z,9.48
2023-06-19T21:08:30.689Z,12.23
2023-06-19T21:10:59.444Z,10.85
2023-06-19T21:17:10.377Z,9.85
2023-06-19T21:19:38.274Z,7.97
2023-06-19T21:22:06.268Z,11.68
2023-06-19T21:24:34.827Z,10.13
2023-06-19T21:27:02.716Z,11.85
2023-06-19T21:29:30.742Z,10.27
2023-06-19T21:31:58.557Z,14.38
2023-06-19T21:34:26.645Z,13.60
2023-06-19T21:36:54.495Z,9.02
2023-06-19T21:39:22.534Z,9.23
2023-06-19T21:41:53.574Z,10.00
2023-06-19T21:44:21.639Z,10.85
2023-06-19T21:46:49.996Z,12.35
2023-06-19T21:49:18.013Z,9.02
2023-06-19T21:51:46.006Z,8.05
2023-06-19T21:54:14.035Z,12.45
2023-06-19T21:56:42.053Z,10.57
2023-06-19T21:59:09.843Z,12.57
2023-06-19T22:01:37.982Z,11.65
2023-06-19T22:04:08.225Z,9.02
2023-06-19T22:06:36.402Z,13.18
2023-06-19T22:09:04.408Z,11.38
2023-06-19T22:11:32.238Z,11.13
2023-06-19T22:14:01.779Z,11.90
2023-06-19T22:16:29.685Z,12.35
2023-06-19T22:19:01.789Z,11.00
2023-06-19T22:21:30.199Z,13.93
2023-06-19T22:23:58.216Z,15.40
2023-06-19T22:26:26.034Z,16.55
2023-06-19T22:28:53.887Z,14.68
2023-06-19T22:34:57.417Z,13.48
2023-06-19T22:37:25.675Z,14.77
2023-06-19T22:39:53.622Z,15.80
2023-06-19T22:42:21.591Z,16.05
2023-06-19T22:44:49.508Z,14.82
2023-06-19T22:47:17.375Z,15.52
2023-06-19T22:49:45.430Z,18.45
2023-06-19T22:52:13.353Z,14.65
2023-06-19T22:54:41.394Z,18.55
2023-06-19T22:57:09.326Z,16.05
2023-06-19T22:59:37.347Z,18.23
2023-06-19T23:02:05.749Z,14.85
2023-06-19T23:04:33.798Z,18.63
2023-06-19T23:07:03.248Z,16.85
2023-06-19T23:09:31.479Z,16.17
2023-06-19T23:11:59.402Z,15.43
2023-06-19T23:14:51.732Z,17.20
2023-06-19T23:17:19.727Z,15.40
2023-06-19T23:19:47.777Z,17.55
2023-06-19T23:22:15.760Z,14.13
2023-06-19T23:25:31.774Z,17.45
2023-06-19T23:28:00.545Z,15.73
2023-06-19T23:30:28.632Z,20.35
2023-06-19T23:32:56.512Z,16.92
2023-06-19T23:35:26.036Z,16.85
2023-06-19T23:37:54.887Z,15.77
2023-06-19T23:40:22.889Z,17.70
2023-06-19T23:42:50.913Z,16.85
2023-06-19T23:45:19.045Z,18.20
2023-06-19T23:47:46.974Z,20.17
2023-06-19T23:50:14.977Z,20.27
2023-06-19T23:52:45.114Z,18.70
2023-06-19T23:55:13.026Z,19.23
2023-06-19T23:57:41.657Z,20.30
